Edinburgh, United Kingdom

6:36 PM BST on April 26, 2015 (GMT +0100)
Inverleith, Edinburgh | | Change Station
CLOSE
Current Station
Personal Weather Station
Location: Edinburgh,
Elevation: 92 ft
Nearby Weather Stations

Elev 92 ft 55.97 °N, 3.20 °W | Updated 14 seconds ago

Scattered Clouds
Scattered Clouds
44.4 °F
Feels Like 42 °F
N
4.3
Wind Variable Wind from North
Gusts 9.8 mph

Today
High -- | Low -- °F
--% Chance of Precip.
Yesterday
High -- | Low -- °F
Precip. -- in
5:41 AM 8:41 PM
First Quarter, 57% visible
Pressure 29.74 in
Visibility 6.2 miles
Clouds Few 3100 ft
Scattered Clouds 3700 ft
Windchill 42 °F
Dew Point 31 °F
Humidity 59%
Rainfall 0.00 in
Snow Depth Not available.
UV 1.0 out of 12
Pollen Not available.
Air Quality Not available.
Flu Activity Not available.
METAR EGPH 261720Z 32008KT 280V360 9999 FEW031CB SCT037 07/M00 Q1007

More Conditions Fewer Conditions

Pressure 29.74 in
Visibility 6.2 miles
Clouds Few 3100 ft
Scattered Clouds 3700 ft
Windchill 42 °F
Dew Point 31 °F
Humidity 59%
Rainfall 0.00 in
Snow Depth Not available.
UV 1.0 out of 12
Pollen Not available.
Air Quality Not available.
Flu Activity Not available.
METAR EGPH 261720Z 32008KT 280V360 9999 FEW031CB SCT037 07/M00 Q1007

More Conditions Fewer Conditions

10-Day Weather Forecast

Almanac

Astronomy

Apr. 26, 2015 Rise Set
Actual Time
Civil Twilight
Nautical Twilight
Astronomical Twilight
Moon
Length of Visible Light
Length of Day
Tomorrow will be .
, % of the Moon is Illuminated

Today's Extremes

Country Highs Country Lows

Community

WunderPhotos

Upload Photos

1,817,063 photos uploaded!

WunderBlogs® & News

Nearby

Air Quality

  Air Quality AQ Index Pollutant
Not available.

Snow Depth

Station Depth Elevation

Earthquake Activity

City Distance Mag. Time & Date
Minimum magnitude displayed is 2.5.

Coastal Water Temperatures

Place Temperature

Stations

Nearby Weather Stations

Station Location Temp. Windchill Dew Point Humidity Wind Precip. Elev Updated Type